Terminal Aerodrome Forecast
Issued by NWS Tulsa, OK

Home | Current Version | Previous Version | Text Only | Print | Product List | Glossary On
Versions: 1 2 3 4 5 6 7 8 9 10 11 12 13 14 15 16 17
521
FTUS44 KTSA 250059 AAA
TAFTUL
TAF AMD
KTUL 250059Z 2501/2524 17010KT P6SM FEW050 FEW110 SCT250
     FM250200 18004KT P6SM OVC250
     FM251200 18002KT P6SM BKN250 PROB30 2512/2518 2SM TSRA BKN050CB
     FM251800 20009KT P6SM FEW250 PROB30 2518/2524 2SM TSRA
      BKN050CB=

USA.gov is the U.S. government's official web portal to all federal, state and local government web resources and services.